Time;durP1;ratioP1;P1;durP2;ratioP2;P2;SDS_P1;SDS_P2;PMS_P1;PMS_P2;Temp;Humidity;BMP_temperature;BMP_pressure;BME280_temperature;BME280_humidity;BME280_pressure;Samples;Min_cycle;Max_cycle;Signal;HPM_P1;HPM_P2
2022/04/21 00:00:14;;;;;;;22.63;20.60;;;10.40;29.00;;;;;;5012259;28;20458;-84
2022/04/21 00:02:41;;;;;;;20.80;19.80;;;10.40;29.20;;;;;;5012434;28;20420;-84
2022/04/21 00:05:11;;;;;;;21.57;20.47;;;10.30;29.00;;;;;;5012629;28;20974;-83
2022/04/21 00:07:37;;;;;;;20.50;19.57;;;10.30;29.00;;;;;;5012113;28;20787;-83
2022/04/21 00:10:04;;;;;;;20.77;19.57;;;10.30;29.30;;;;;;5012362;28;20503;-83
2022/04/21 00:12:30;;;;;;;21.73;20.63;;;10.20;29.30;;;;;;5012696;28;20416;-83
2022/04/21 00:14:56;;;;;;;23.70;22.40;;;10.30;29.40;;;;;;5011560;28;20411;-83
2022/04/21 00:17:22;;;;;;;21.30;20.27;;;10.30;29.40;;;;;;5012258;28;20231;-83
2022/04/21 00:19:48;;;;;;;20.97;19.33;;;10.40;29.50;;;;;;5012490;28;20424;-84
2022/04/21 00:24:58;;;;;;;21.13;20.03;;;10.20;29.90;;;;;;5014375;28;20416;-84
2022/04/21 00:27:24;;;;;;;21.60;20.50;;;10.20;30.10;;;;;;5012457;28;20420;-84
2022/04/21 00:29:49;;;;;;;20.63;19.53;;;10.20;30.00;;;;;;5012077;28;20544;-84
2022/04/21 00:32:15;;;;;;;22.17;20.67;;;10.20;30.50;;;;;;5011663;28;20177;-82
2022/04/21 00:34:40;;;;;;;22.37;21.27;;;10.10;30.90;;;;;;5013294;28;20217;-84
2022/04/21 00:37:06;;;;;;;21.07;20.10;;;10.10;31.00;;;;;;5011968;28;20274;-84
2022/04/21 00:39:32;;;;;;;22.33;20.90;;;10.00;31.00;;;;;;5012504;28;20183;-84
2022/04/21 00:42:02;;;;;;;20.50;19.57;;;9.90;32.30;;;;;;5013149;28;20169;-76
2022/04/21 00:44:29;;;;;;;21.60;20.60;;;9.90;32.30;;;;;;5011296;28;20421;-76
2022/04/21 00:46:57;;;;;;;21.23;20.00;;;9.80;32.30;;;;;;5011832;28;20828;-75
2022/04/21 00:49:25;;;;;;;21.90;20.70;;;9.80;32.30;;;;;;5011477;28;20417;-76
2022/04/21 00:51:52;;;;;;;24.03;22.63;;;9.80;32.30;;;;;;5011671;28;20515;-78
2022/04/21 00:54:18;;;;;;;21.80;20.70;;;9.80;32.30;;;;;;5011395;28;20516;-77
2022/04/21 00:56:45;;;;;;;23.30;22.20;;;9.80;32.30;;;;;;5010235;28;20514;-77
2022/04/21 00:59:12;;;;;;;22.27;21.17;;;9.80;32.50;;;;;;5011271;28;20185;-76
2022/04/21 01:04:23;;;;;;;21.20;20.20;;;9.70;32.60;;;;;;5012764;28;20504;-77
2022/04/21 01:06:51;;;;;;;22.37;21.07;;;9.70;32.50;;;;;;5011375;28;20507;-77
2022/04/21 01:09:17;;;;;;;22.43;21.23;;;9.80;32.90;;;;;;5010272;28;20213;-77
2022/04/21 01:11:43;;;;;;;21.97;20.87;;;9.60;33.10;;;;;;5011340;28;20448;-77
2022/04/21 01:14:09;;;;;;;22.07;20.97;;;9.70;33.90;;;;;;5011315;28;20240;-75
2022/04/21 01:16:35;;;;;;;23.53;21.70;;;9.70;33.90;;;;;;5011187;28;20421;-76
2022/04/21 01:19:01;;;;;;;22.40;21.10;;;9.60;33.10;;;;;;5011452;28;20427;-77
2022/04/21 01:21:26;;;;;;;22.93;21.67;;;9.60;34.20;;;;;;5011081;28;20202;-76
2022/04/21 01:23:52;;;;;;;22.07;21.07;;;9.70;33.70;;;;;;5011580;28;20443;-77
2022/04/21 01:26:18;;;;;;;22.43;21.43;;;9.60;34.00;;;;;;5012250;28;20549;-76
2022/04/21 01:28:45;;;;;;;21.37;20.40;;;9.60;34.00;;;;;;5012703;28;20169;-77
2022/04/21 01:31:11;;;;;;;22.20;21.20;;;9.50;34.70;;;;;;5013009;28;20173;-77
2022/04/21 01:33:37;;;;;;;23.40;22.20;;;9.50;34.40;;;;;;5011910;28;21060;-76
2022/04/21 01:36:04;;;;;;;22.47;21.30;;;9.40;34.70;;;;;;5012301;28;20499;-76
2022/04/21 01:41:14;;;;;;;22.43;21.20;;;9.40;35.40;;;;;;5013095;28;20471;-84
2022/04/21 01:43:43;;;;;;;23.80;22.60;;;9.40;35.10;;;;;;5010900;28;20423;-84
2022/04/21 01:46:09;;;;;;;23.27;22.07;;;9.50;35.10;;;;;;5010815;28;20671;-84
2022/04/21 01:48:35;;;;;;;21.33;20.33;;;9.60;34.50;;;;;;5010332;28;20427;-83
2022/04/21 01:51:01;;;;;;;22.50;21.30;;;9.50;34.50;;;;;;5010767;28;20495;-84
2022/04/21 01:53:27;;;;;;;23.73;22.50;;;9.60;34.20;;;;;;5010403;28;20499;-83
2022/04/21 01:55:53;;;;;;;23.13;21.87;;;9.50;35.10;;;;;;5010205;28;20420;-83
2022/04/21 01:58:19;;;;;;;22.30;21.20;;;9.40;35.40;;;;;;5009767;28;20786;-84
2022/04/21 02:00:44;;;;;;;25.00;23.70;;;9.30;35.80;;;;;;5010419;28;20205;-83
2022/04/21 02:03:10;;;;;;;25.20;23.83;;;9.20;36.20;;;;;;5011169;28;20325;-83
2022/04/21 02:05:35;;;;;;;23.07;21.97;;;9.20;36.30;;;;;;5010048;28;20227;-84
2022/04/21 02:08:02;;;;;;;22.60;21.40;;;9.20;36.20;;;;;;5010223;28;20321;-84
2022/04/21 02:10:30;;;;;;;25.20;23.90;;;9.20;36.60;;;;;;5009502;28;20592;-84
2022/04/21 02:12:56;;;;;;;25.37;24.00;;;9.20;36.80;;;;;;5010072;28;20964;-85
2022/04/21 02:15:23;;;;;;;26.03;24.70;;;9.10;36.80;;;;;;5009319;28;20928;-83
2022/04/21 02:17:50;;;;;;;27.07;25.50;;;9.00;37.40;;;;;;5009975;28;20853;-84
2022/04/21 02:20:16;;;;;;;26.37;24.97;;;9.00;37.50;;;;;;5009206;28;20543;-84
2022/04/21 02:22:44;;;;;;;24.10;22.80;;;9.00;37.40;;;;;;5009586;28;20872;-85
2022/04/21 02:25:14;;;;;;;25.77;24.00;;;9.00;37.50;;;;;;5009358;28;20420;-84
2022/04/21 02:27:43;;;;;;;26.23;24.90;;;9.10;37.60;;;;;;5009651;28;20420;-84
2022/04/21 02:30:10;;;;;;;26.10;24.50;;;9.00;37.60;;;;;;5009844;28;20979;-83
2022/04/21 02:32:36;;;;;;;27.27;25.77;;;9.00;38.00;;;;;;5011291;28;20955;-75
2022/04/21 02:35:03;;;;;;;26.97;25.50;;;9.00;38.00;;;;;;5009389;28;20440;-78
2022/04/21 02:37:34;;;;;;;26.93;25.63;;;8.90;38.20;;;;;;5010317;28;20170;-77
2022/04/21 02:40:00;;;;;;;27.17;25.83;;;8.90;38.60;;;;;;5009207;28;20594;-78
2022/04/21 02:42:26;;;;;;;26.87;25.47;;;8.90;38.60;;;;;;5009192;28;20893;-78
2022/04/21 02:44:51;;;;;;;28.37;26.97;;;8.90;38.60;;;;;;5009120;28;20189;-78
2022/04/21 02:47:17;;;;;;;26.60;25.10;;;8.90;38.80;;;;;;5009090;28;20172;-76
2022/04/21 02:49:47;;;;;;;26.17;24.67;;;8.90;39.10;;;;;;5009367;28;20181;-77
2022/04/21 02:52:13;;;;;;;27.20;25.83;;;8.70;38.70;;;;;;5008350;28;20417;-76
2022/04/21 02:57:25;;;;;;;25.50;24.00;;;8.80;39.20;;;;;;5009983;28;20447;-76
2022/04/21 02:59:55;;;;;;;26.37;24.53;;;8.90;39.30;;;;;;5008520;28;20416;-76
2022/04/21 03:02:22;;;;;;;26.70;25.10;;;8.80;39.10;;;;;;5009780;28;20494;-76
2022/04/21 03:04:49;;;;;;;29.20;27.47;;;8.70;39.20;;;;;;5007772;28;20413;-77
2022/04/21 03:07:17;;;;;;;28.80;27.10;;;8.60;39.70;;;;;;5008103;28;20512;-77
2022/04/21 03:09:46;;;;;;;28.30;26.80;;;8.70;39.70;;;;;;5009270;28;20774;-77
2022/04/21 03:12:11;;;;;;;28.33;26.93;;;8.70;40.20;;;;;;5008973;28;20761;-76
2022/04/21 03:14:38;;;;;;;29.23;27.63;;;8.60;40.10;;;;;;5008267;28;20420;-77
2022/04/21 03:17:05;;;;;;;29.17;27.57;;;8.40;40.50;;;;;;5008277;28;20269;-79
2022/04/21 03:19:31;;;;;;;28.63;26.90;;;8.40;40.60;;;;;;5008861;28;20443;-77
2022/04/21 03:24:40;;;;;;;29.77;28.17;;;8.40;41.20;;;;;;5010527;28;20216;-77
2022/04/21 03:27:06;;;;;;;28.60;27.00;;;8.40;41.10;;;;;;5010582;28;20448;-77
2022/04/21 03:29:37;;;;;;;29.17;27.57;;;8.40;41.20;;;;;;5009233;28;20177;-77
2022/04/21 03:32:09;;;;;;;28.93;27.53;;;8.30;41.10;;;;;;5009519;28;20182;-78
2022/04/21 03:34:41;;;;;;;29.30;27.57;;;8.40;41.30;;;;;;5012758;28;20447;-78
2022/04/21 03:37:15;;;;;;;31.30;29.40;;;8.50;41.30;;;;;;5013463;28;20428;-76
2022/04/21 03:39:43;;;;;;;31.07;29.23;;;8.50;41.30;;;;;;5013971;28;20490;-78
2022/04/21 03:42:27;;;;;;;31.27;29.47;;;8.50;41.30;;;;;;5014608;28;20775;-77
2022/04/21 03:44:54;;;;;;;32.20;30.40;;;8.50;41.40;;;;;;5014179;28;20452;-77
2022/04/21 03:47:21;;;;;;;30.07;28.57;;;8.40;41.50;;;;;;5014215;28;20519;-77
2022/04/21 03:49:47;;;;;;;32.83;30.90;;;8.40;41.20;;;;;;5013869;28;20448;-76
2022/04/21 03:52:13;;;;;;;28.97;27.37;;;8.40;42.20;;;;;;5014211;28;20503;-77
2022/04/21 03:54:40;;;;;;;30.20;28.70;;;8.40;41.90;;;;;;5014189;28;20404;-76
2022/04/21 03:57:07;;;;;;;33.40;31.60;;;8.40;43.20;;;;;;5014200;28;20410;-77
2022/04/21 03:59:33;;;;;;;28.40;26.80;;;8.40;42.60;;;;;;5014338;28;20404;-79
2022/04/21 04:02:02;;;;;;;29.50;27.80;;;8.30;42.20;;;;;;5014233;28;20984;-77
2022/04/21 04:04:33;;;;;;;31.90;30.30;;;8.30;42.60;;;;;;5014197;28;20781;-76
2022/04/21 04:12:32;;;;;;;32.67;30.83;;;8.30;42.90;;;;;;4995431;28;20498;-76
2022/04/21 04:14:59;;;;;;;34.63;32.60;;;8.30;42.60;;;;;;5000869;28;20443;-76
2022/04/21 04:17:25;;;;;;;32.57;30.83;;;8.20;42.50;;;;;;4999074;28;20458;-77
2022/04/21 04:19:53;;;;;;;35.20;33.00;;;8.20;42.70;;;;;;5000494;28;20457;-77
2022/04/21 04:22:19;;;;;;;33.50;31.67;;;8.20;42.50;;;;;;4993738;28;20443;-76
2022/04/21 04:24:45;;;;;;;33.20;31.40;;;8.10;42.60;;;;;;4999677;28;20463;-76
2022/04/21 04:27:11;;;;;;;32.83;31.00;;;8.10;42.90;;;;;;4997653;28;20221;-76
2022/04/21 04:29:37;;;;;;;33.30;31.50;;;8.10;43.20;;;;;;4999123;28;20510;-76
2022/04/21 04:32:02;;;;;;;33.00;31.20;;;8.20;42.90;;;;;;5000278;28;20225;-76
2022/04/21 04:34:28;;;;;;;31.67;29.87;;;8.20;43.20;;;;;;4999363;28;20456;-77
2022/04/21 04:36:54;;;;;;;32.00;30.27;;;8.20;42.80;;;;;;4999728;28;21078;-77
2022/04/21 04:39:19;;;;;;;30.80;29.10;;;8.20;43.00;;;;;;4998190;28;20237;-76
2022/04/21 04:44:30;;;;;;;30.77;29.07;;;8.10;42.90;;;;;;5002658;28;20318;-76
2022/04/21 04:46:56;;;;;;;32.93;31.20;;;8.10;43.60;;;;;;5013508;28;20462;-77
2022/04/21 04:49:24;;;;;;;33.00;30.97;;;8.10;43.00;;;;;;5014065;28;20196;-83
2022/04/21 04:51:50;;;;;;;32.77;31.07;;;8.20;43.00;;;;;;5011281;28;20495;-82
2022/04/21 04:54:16;;;;;;;31.87;30.10;;;8.20;43.40;;;;;;5038214;28;20419;-84
2022/04/21 04:56:44;;;;;;;31.27;29.57;;;8.20;43.10;;;;;;5033004;28;20420;-85
2022/04/21 04:59:10;;;;;;;32.90;31.10;;;8.30;43.00;;;;;;5033040;28;20454;-84
2022/04/21 05:01:41;;;;;;;31.33;29.63;;;8.30;43.50;;;;;;5031374;28;21049;-84
2022/04/21 05:04:15;;;;;;;33.37;31.50;;;8.30;42.70;;;;;;5030987;28;20458;-84
2022/04/21 05:06:42;;;;;;;30.90;29.00;;;8.30;42.80;;;;;;5030886;28;20506;-85
2022/04/21 05:09:10;;;;;;;32.90;31.00;;;8.30;43.00;;;;;;5031024;28;20443;-85
2022/04/21 05:11:40;;;;;;;32.93;31.07;;;8.30;43.50;;;;;;5030706;28;20423;-85
2022/04/21 05:14:07;;;;;;;33.87;31.87;;;8.20;42.90;;;;;;5032013;28;20420;-85
2022/04/21 05:16:36;;;;;;;30.73;28.93;;;8.20;43.80;;;;;;5031785;28;20434;-85
2022/04/21 05:19:11;;;;;;;32.90;30.90;;;8.30;43.50;;;;;;5032021;28;20447;-85
2022/04/21 05:21:38;;;;;;;32.77;30.70;;;8.40;42.90;;;;;;5032137;28;20865;-85
2022/04/21 05:24:05;;;;;;;33.43;31.63;;;8.30;42.60;;;;;;5032758;28;20754;-85
2022/04/21 05:26:32;;;;;;;33.40;31.40;;;8.30;42.80;;;;;;5032549;28;20450;-85
2022/04/21 05:29:00;;;;;;;33.60;31.50;;;8.20;43.00;;;;;;5032858;28;20404;-85
2022/04/21 05:31:26;;;;;;;33.27;31.47;;;8.30;44.10;;;;;;5032400;28;20782;-83
2022/04/21 05:33:55;;;;;;;28.47;26.67;;;8.20;43.30;;;;;;5032195;28;20427;-85
2022/04/21 05:36:22;;;;;;;30.57;28.67;;;8.30;43.40;;;;;;5032279;28;20781;-85
2022/04/21 05:38:49;;;;;;;33.23;31.23;;;8.40;43.10;;;;;;5032272;28;20419;-84
2022/04/21 05:41:16;;;;;;;33.63;31.43;;;8.50;42.90;;;;;;5022759;28;20464;-85
2022/04/21 05:43:44;;;;;;;31.40;29.23;;;8.50;42.80;;;;;;5011091;28;20448;-84
2022/04/21 05:46:12;;;;;;;32.00;30.10;;;8.50;42.50;;;;;;5028149;28;20905;-84
2022/04/21 05:48:39;;;;;;;35.87;33.77;;;8.40;42.50;;;;;;5028272;28;20413;-85
2022/04/21 05:51:05;;;;;;;33.70;31.70;;;8.50;43.70;;;;;;5012062;28;20539;-85
2022/04/21 05:53:38;;;;;;;33.80;32.00;;;8.50;43.30;;;;;;5028972;28;20439;-83
2022/04/21 05:56:09;;;;;;;35.70;33.10;;;8.60;43.40;;;;;;5011922;28;20419;-84
2022/04/21 05:58:37;;;;;;;30.57;28.50;;;8.70;42.80;;;;;;5012038;28;20436;-85
2022/04/21 06:01:10;;;;;;;30.07;28.33;;;8.70;42.70;;;;;;5011850;28;20460;-85
2022/04/21 06:03:37;;;;;;;36.53;34.20;;;8.70;42.70;;;;;;5011789;28;20767;-83
2022/04/21 06:06:08;;;;;;;36.40;34.40;;;8.70;42.50;;;;;;5012317;28;20423;-84
2022/04/21 06:08:35;;;;;;;37.50;35.20;;;8.80;41.60;;;;;;5012040;28;20417;-85
2022/04/21 06:11:00;;;;;;;36.97;34.50;;;8.80;42.50;;;;;;5012796;28;20460;-84
2022/04/21 06:13:27;;;;;;;37.67;35.17;;;9.00;42.20;;;;;;5012808;28;20440;-84
2022/04/21 06:15:54;;;;;;;39.07;34.97;;;9.00;41.80;;;;;;5013180;28;20604;-84
2022/04/21 06:18:20;;;;;;;38.63;36.20;;;9.10;41.90;;;;;;5012897;28;20474;-84
2022/04/21 06:20:47;;;;;;;35.73;33.40;;;9.20;41.90;;;;;;5012654;28;20454;-78
2022/04/21 06:25:44;;;;;;;33.37;31.20;;;9.20;40.80;;;;;;5040608;22;20572;-77
2022/04/21 06:28:11;;;;;;;32.90;29.70;;;9.20;41.10;;;;;;5031369;28;20416;-77
2022/04/21 06:30:37;;;;;;;30.93;29.10;;;9.20;41.30;;;;;;5031168;28;20667;-77
2022/04/21 06:33:03;;;;;;;30.57;28.67;;;9.20;41.50;;;;;;5031058;28;20499;-77
2022/04/21 06:35:29;;;;;;;30.90;29.00;;;9.20;41.30;;;;;;5030858;28;20415;-78
2022/04/21 06:37:56;;;;;;;32.57;30.17;;;9.20;41.90;;;;;;5031046;28;20790;-78
2022/04/21 06:40:22;;;;;;;32.17;29.33;;;9.30;41.40;;;;;;5030776;28;20455;-78
2022/04/21 06:48:54;;;;;;;30.93;28.80;;;9.50;40.30;;;;;;5032358;28;20414;-77
2022/04/21 06:51:20;;;;;;;30.27;28.23;;;9.50;39.80;;;;;;5014434;28;20506;-78
2022/04/21 06:53:45;;;;;;;32.43;30.30;;;9.50;41.20;;;;;;5014052;28;20176;-78
2022/04/21 06:56:11;;;;;;;32.50;30.50;;;9.50;39.90;;;;;;5014531;28;20701;-77
2022/04/21 06:58:37;;;;;;;30.37;28.40;;;9.60;40.10;;;;;;5014080;28;20183;-77
2022/04/21 07:01:03;;;;;;;31.33;28.93;;;9.60;39.80;;;;;;5014374;28;20303;-78
2022/04/21 07:03:29;;;;;;;31.70;29.63;;;9.70;39.10;;;;;;5013991;28;20716;-77
2022/04/21 07:05:55;;;;;;;32.23;29.00;;;9.80;38.80;;;;;;5014456;28;20506;-77
2022/04/21 07:08:22;;;;;;;31.53;29.20;;;9.90;39.20;;;;;;5015661;28;20204;-77
2022/04/21 07:10:48;;;;;;;34.83;32.13;;;9.90;40.30;;;;;;5017387;28;20493;-77
2022/04/21 07:13:14;;;;;;;32.57;30.27;;;10.00;37.60;;;;;;5017499;28;20977;-76
2022/04/21 07:15:43;;;;;;;31.33;29.17;;;10.10;37.60;;;;;;5017540;28;20435;-77
2022/04/21 07:18:09;;;;;;;31.40;29.10;;;10.10;36.70;;;;;;5035876;28;20176;-78
2022/04/21 07:20:35;;;;;;;30.47;28.37;;;10.00;37.20;;;;;;5017909;28;20454;-77
2022/04/21 07:23:01;;;;;;;30.00;27.97;;;10.10;36.10;;;;;;5018460;28;20427;-76
2022/04/21 07:25:28;;;;;;;32.00;29.60;;;10.10;35.40;;;;;;5035888;28;20415;-77
2022/04/21 07:27:54;;;;;;;30.50;28.60;;;10.00;36.30;;;;;;5018404;28;20911;-77
2022/04/21 07:30:20;;;;;;;28.70;27.10;;;10.10;37.10;;;;;;5018223;28;20418;-77
2022/04/21 07:32:46;;;;;;;30.60;28.57;;;10.10;35.60;;;;;;5018426;28;20181;-78
2022/04/21 07:35:12;;;;;;;31.23;29.30;;;10.20;37.50;;;;;;5018214;28;20420;-78
2022/04/21 07:37:37;;;;;;;36.13;33.93;;;10.40;38.80;;;;;;5018337;28;20506;-82
2022/04/21 07:40:04;;;;;;;29.40;27.50;;;10.50;35.70;;;;;;5018294;28;20188;-81
2022/04/21 07:42:30;;;;;;;30.27;28.37;;;10.70;36.80;;;;;;5035998;28;20647;-82
2022/04/21 07:45:01;;;;;;;30.07;27.83;;;10.80;34.80;;;;;;5018160;28;20413;-82
2022/04/21 07:47:27;;;;;;;29.20;27.53;;;10.80;33.60;;;;;;5018160;28;20189;-84
2022/04/21 07:49:52;;;;;;;31.17;29.10;;;10.90;34.70;;;;;;5018144;28;20442;-83
2022/04/21 07:55:24;;;;;;;31.30;28.87;;;10.90;34.00;;;;;;5036059;28;20179;-83
2022/04/21 07:57:53;;;;;;;28.90;27.00;;;11.00;34.40;;;;;;5018135;28;20437;-84
2022/04/21 08:00:19;;;;;;;29.10;27.20;;;11.00;32.90;;;;;;5017984;28;20534;-83
2022/04/21 08:02:46;;;;;;;29.33;27.33;;;11.00;33.90;;;;;;5017834;28;20503;-82
2022/04/21 08:05:13;;;;;;;30.20;28.20;;;11.10;34.30;;;;;;5017146;28;20452;-84
2022/04/21 08:07:40;;;;;;;28.80;26.77;;;11.10;33.80;;;;;;5017357;28;20511;-83
2022/04/21 08:10:07;;;;;;;27.20;25.70;;;11.20;33.00;;;;;;5017814;28;20557;-83
2022/04/21 08:12:39;;;;;;;28.80;26.70;;;11.30;32.70;;;;;;5017833;28;20473;-83
2022/04/21 08:15:06;;;;;;;29.67;27.47;;;11.30;32.60;;;;;;5017446;28;20442;-83
2022/04/21 08:17:32;;;;;;;28.27;26.30;;;11.40;32.70;;;;;;5017681;28;20437;-82
2022/04/21 08:19:57;;;;;;;28.17;26.50;;;11.50;31.80;;;;;;5017051;28;20510;-83
2022/04/21 08:22:23;;;;;;;31.50;29.50;;;11.50;32.80;;;;;;5016932;28;20773;-82
2022/04/21 08:33:00;;;;;;;31.83;29.80;;;11.80;30.60;;;;;;5035550;28;20415;-83
2022/04/21 08:35:26;;;;;;;31.92;29.92;;;11.90;30.80;;;;;;5015894;28;20789;-83
2022/04/21 08:37:52;;;;;;;28.63;26.77;;;11.90;30.80;;;;;;5008387;28;20191;-82
2022/04/21 08:40:18;;;;;;;28.33;26.70;;;12.10;30.40;;;;;;5016334;28;20544;-83
2022/04/21 08:42:44;;;;;;;31.50;29.70;;;12.10;29.70;;;;;;5016391;28;20625;-83
2022/04/21 08:45:13;;;;;;;27.43;25.63;;;12.30;30.00;;;;;;5015865;28;20424;-83
2022/04/21 08:47:46;;;;;;;30.50;28.50;;;12.40;30.00;;;;;;5016418;28;20774;-83
2022/04/21 08:50:12;;;;;;;28.13;26.53;;;12.50;29.90;;;;;;5016378;28;20466;-83
2022/04/21 08:52:40;;;;;;;30.67;28.77;;;12.50;30.00;;;;;;5016077;28;21049;-83
2022/04/21 08:55:06;;;;;;;30.63;28.73;;;12.60;30.70;;;;;;5016107;28;20939;-83
2022/04/21 08:57:31;;;;;;;30.70;28.33;;;12.60;29.90;;;;;;5015839;28;20837;-84
2022/04/21 08:59:58;;;;;;;30.50;28.60;;;12.60;30.40;;;;;;5016004;28;20773;-84
2022/04/21 09:02:41;;;;;;;29.77;27.80;;;12.50;29.90;;;;;;5016133;28;20632;-83
2022/04/21 09:05:08;;;;;;;27.73;25.93;;;12.50;30.30;;;;;;5015945;28;20411;-84
2022/04/21 09:07:48;;;;;;;28.47;26.80;;;12.60;30.00;;;;;;5033704;28;20495;-84
2022/04/21 09:10:15;;;;;;;27.73;26.13;;;12.60;29.80;;;;;;5015796;28;20434;-85
2022/04/21 09:12:46;;;;;;;28.47;26.77;;;12.70;29.80;;;;;;5015842;28;20430;-83
2022/04/21 09:15:17;;;;;;;29.47;27.67;;;12.70;30.10;;;;;;5016009;28;20513;-84
2022/04/21 09:17:47;;;;;;;28.07;26.37;;;13.00;28.90;;;;;;5015739;28;20434;-84
2022/04/21 09:20:18;;;;;;;30.13;28.23;;;13.00;28.80;;;;;;5015979;28;20455;-85
2022/04/21 09:22:52;;;;;;;30.30;28.60;;;13.10;28.80;;;;;;5015637;28;20442;-83
2022/04/21 09:25:25;;;;;;;29.80;27.90;;;13.20;28.00;;;;;;5015655;28;20426;-84
2022/04/21 09:27:52;;;;;;;26.03;24.50;;;13.30;27.90;;;;;;5015835;28;20427;-85
2022/04/21 09:30:18;;;;;;;28.40;26.80;;;13.30;28.00;;;;;;5014683;28;20427;-85
2022/04/21 09:32:53;;;;;;;28.83;27.13;;;13.40;28.10;;;;;;5015127;28;20430;-84
2022/04/21 09:35:19;;;;;;;28.40;26.80;;;13.60;27.40;;;;;;5015596;28;20419;-84
2022/04/21 09:37:51;;;;;;;28.27;26.47;;;13.60;27.30;;;;;;5033077;28;20466;-85
2022/04/21 09:40:19;;;;;;;29.30;27.30;;;13.60;26.90;;;;;;5015577;28;20813;-86
2022/04/21 09:42:56;;;;;;;28.37;26.77;;;13.70;27.60;;;;;;5015710;28;20798;-85
2022/04/21 09:48:30;;;;;;;28.63;27.23;;;13.90;26.50;;;;;;5033524;28;20418;-86
2022/04/21 09:51:12;;;;;;;29.53;27.63;;;14.00;26.60;;;;;;5015859;28;20422;-86
2022/04/21 09:54:10;;;;;;;28.67;27.13;;;14.10;26.10;;;;;;5015036;28;20434;-85
2022/04/21 09:56:39;;;;;;;27.90;26.30;;;14.10;26.00;;;;;;4996289;28;20996;-85
2022/04/21 09:59:08;;;;;;;27.00;25.40;;;14.10;27.80;;;;;;5015084;28;20422;-85
2022/04/21 10:01:36;;;;;;;28.30;26.60;;;14.20;26.00;;;;;;5015019;28;20463;-86
2022/04/21 10:04:06;;;;;;;30.47;28.63;;;14.30;25.70;;;;;;5014861;28;20868;-85
2022/04/21 10:06:31;;;;;;;29.83;28.23;;;14.20;26.00;;;;;;5015077;28;20423;-86
2022/04/21 10:08:58;;;;;;;26.17;24.47;;;14.20;24.90;;;;;;5015000;28;20415;-85
2022/04/21 10:11:24;;;;;;;25.77;24.47;;;14.20;26.10;;;;;;5014976;28;20207;-85
2022/04/21 10:13:54;;;;;;;27.97;26.47;;;14.30;25.50;;;;;;5014786;28;20987;-85
2022/04/21 10:16:26;;;;;;;25.70;24.20;;;14.30;25.80;;;;;;5014958;28;20512;-85
2022/04/21 10:18:54;;;;;;;26.17;24.77;;;14.40;25.70;;;;;;5015010;28;20814;-85
2022/04/21 10:21:29;;;;;;;26.07;24.67;;;14.50;26.20;;;;;;5014923;28;20463;-85
2022/04/21 10:23:56;;;;;;;27.13;25.23;;;14.70;24.60;;;;;;5014573;28;20891;-86
2022/04/21 10:26:43;;;;;;;25.07;23.87;;;14.60;25.50;;;;;;5014638;28;20428;-85
2022/04/21 10:29:13;;;;;;;26.57;25.07;;;14.60;25.40;;;;;;5014577;28;20449;-85
2022/04/21 10:31:45;;;;;;;26.17;24.87;;;14.60;24.90;;;;;;5014595;28;20482;-86
2022/04/21 10:34:41;;;;;;;26.53;24.93;;;14.60;25.30;;;;;;5014541;28;20429;-85
2022/04/21 10:37:09;;;;;;;27.37;26.07;;;14.50;25.60;;;;;;5014883;28;20423;-86
2022/04/21 10:39:35;;;;;;;26.43;24.80;;;14.50;25.60;;;;;;5014500;28;20473;-85
2022/04/21 10:42:12;;;;;;;25.23;24.03;;;14.40;25.30;;;;;;5014430;28;20494;-86
2022/04/21 10:44:55;;;;;;;24.77;23.37;;;14.30;25.60;;;;;;5014335;28;20434;-85
2022/04/21 10:47:31;;;;;;;25.93;24.70;;;14.30;26.10;;;;;;5014493;28;20786;-85
2022/04/21 10:50:00;;;;;;;26.13;24.67;;;14.40;25.60;;;;;;5014483;28;20427;-85
2022/04/21 10:57:48;;;;;;;25.70;24.40;;;14.70;25.40;;;;;;5032458;28;20422;-86
2022/04/21 11:00:32;;;;;;;25.20;23.80;;;14.80;25.20;;;;;;5032098;28;20889;-84
2022/04/21 11:03:06;;;;;;;25.27;23.77;;;15.00;25.00;;;;;;5014559;28;20415;-85
2022/04/21 11:05:38;;;;;;;26.27;24.87;;;15.00;25.10;;;;;;5014375;28;20410;-85
2022/04/21 11:08:10;;;;;;;25.20;23.80;;;15.10;24.90;;;;;;5014560;28;20419;-85
2022/04/21 11:10:39;;;;;;;25.40;24.20;;;15.10;25.00;;;;;;5014223;28;20420;-86
2022/04/21 11:13:09;;;;;;;24.07;22.77;;;15.10;25.50;;;;;;5014600;28;20411;-86
2022/04/21 11:15:39;;;;;;;23.53;22.43;;;15.20;25.10;;;;;;5014463;28;20430;-86
2022/04/21 11:18:10;;;;;;;26.23;24.73;;;15.10;25.00;;;;;;5014619;28;20518;-86
2022/04/21 11:20:44;;;;;;;26.20;24.60;;;15.10;25.10;;;;;;5014526;28;20538;-86
2022/04/21 11:23:23;;;;;;;25.17;23.87;;;15.20;24.70;;;;;;5015025;28;20425;-86
2022/04/21 11:25:50;;;;;;;23.63;22.43;;;15.40;24.50;;;;;;5015298;28;20426;-86
2022/04/21 11:28:24;;;;;;;24.93;23.70;;;15.30;24.70;;;;;;5015563;28;20418;-79
2022/04/21 11:30:56;;;;;;;23.53;22.40;;;15.20;24.80;;;;;;5015323;28;20430;-85
2022/04/21 11:33:23;;;;;;;21.83;20.83;;;15.10;25.10;;;;;;5016519;28;20475;-78
2022/04/21 11:35:48;;;;;;;24.63;23.53;;;15.20;25.10;;;;;;5014876;28;20426;-86
2022/04/21 11:38:17;;;;;;;24.60;23.50;;;15.20;25.50;;;;;;5015742;28;20510;-86
2022/04/21 11:40:44;;;;;;;23.00;21.87;;;15.40;24.80;;;;;;5014235;28;20207;-86
2022/04/21 11:43:17;;;;;;;22.73;21.73;;;15.40;24.90;;;;;;5014552;28;20454;-87
2022/04/21 11:45:58;;;;;;;23.20;22.20;;;15.30;25.20;;;;;;5013877;28;20408;-86
2022/04/21 11:48:36;;;;;;;22.77;21.60;;;15.40;25.40;;;;;;5014008;28;20453;-86
2022/04/21 11:51:03;;;;;;;22.57;21.67;;;15.60;26.30;;;;;;5014280;28;20431;-86
2022/04/21 11:53:34;;;;;;;21.80;20.70;;;15.80;24.80;;;;;;5014397;28;20954;-87
2022/04/21 11:56:00;;;;;;;20.80;20.00;;;16.00;25.20;;;;;;5017882;28;20422;-83
2022/04/21 11:58:27;;;;;;;21.67;20.77;;;16.00;24.50;;;;;;5017719;28;20882;-85
2022/04/21 12:06:40;;;;;;;21.63;20.77;;;16.00;23.70;;;;;;5015589;28;20853;-85
2022/04/21 12:09:08;;;;;;;22.40;21.40;;;16.00;23.50;;;;;;5014454;28;20424;-85
2022/04/21 12:11:34;;;;;;;20.23;19.40;;;16.00;23.40;;;;;;5014006;28;20446;-86
2022/04/21 12:14:00;;;;;;;20.30;19.40;;;16.00;24.20;;;;;;5014501;28;20416;-85
2022/04/21 12:16:43;;;;;;;20.10;19.30;;;15.90;23.80;;;;;;5017321;28;20423;-85
2022/04/21 12:19:39;;;;;;;20.37;19.57;;;16.00;23.70;;;;;;5014691;28;20426;-85
2022/04/21 12:22:08;;;;;;;20.30;19.30;;;16.00;23.60;;;;;;5016246;28;20455;-85
2022/04/21 12:24:43;;;;;;;19.23;18.43;;;16.00;24.00;;;;;;5016772;28;20423;-86
2022/04/21 12:27:26;;;;;;;20.00;19.20;;;16.00;23.50;;;;;;5016923;28;20972;-85
2022/04/21 12:29:53;;;;;;;20.33;19.33;;;16.00;24.00;;;;;;5016987;28;20948;-85
2022/04/21 12:32:27;;;;;;;20.57;19.67;;;16.00;23.20;;;;;;5016916;28;20480;-85
2022/04/21 12:34:55;;;;;;;20.40;19.60;;;16.00;24.10;;;;;;5017072;28;20417;-85
2022/04/21 12:37:41;;;;;;;20.10;19.30;;;16.10;23.90;;;;;;5016744;28;20419;-86
2022/04/21 12:40:12;;;;;;;19.67;18.97;;;16.30;23.70;;;;;;5016967;28;20794;-86
2022/04/21 12:42:41;;;;;;;19.77;19.03;;;16.40;23.00;;;;;;5017391;28;20418;-86
2022/04/21 12:45:08;;;;;;;20.40;19.30;;;16.40;23.00;;;;;;5017528;28;20417;-86
2022/04/21 12:47:48;;;;;;;19.70;19.00;;;16.40;22.30;;;;;;5017751;28;20717;-86
2022/04/21 12:50:21;;;;;;;20.50;19.60;;;16.20;22.60;;;;;;5017728;28;20755;-85
2022/04/21 12:52:49;;;;;;;19.40;18.70;;;16.30;23.10;;;;;;5016975;28;20440;-85
2022/04/21 12:55:19;;;;;;;20.17;19.47;;;16.40;23.30;;;;;;5016890;28;20418;-86
2022/04/21 12:58:01;;;;;;;20.27;19.47;;;16.50;22.30;;;;;;5016518;28;20412;-85
2022/04/21 13:00:27;;;;;;;19.37;18.67;;;16.60;22.60;;;;;;5016446;28;20444;-85
2022/04/21 13:02:53;;;;;;;18.80;18.10;;;16.60;22.70;;;;;;5016412;28;20411;-86
2022/04/21 13:05:19;;;;;;;19.17;18.43;;;16.70;22.50;;;;;;5016342;28;20818;-86
2022/04/21 13:07:44;;;;;;;18.20;17.50;;;16.70;22.30;;;;;;5016226;28;20223;-86
2022/04/21 13:10:10;;;;;;;19.80;18.97;;;16.70;21.80;;;;;;5016224;28;20169;-85
2022/04/21 13:12:36;;;;;;;20.23;19.33;;;16.90;21.90;;;;;;5016101;28;20196;-86
2022/04/21 13:15:04;;;;;;;20.20;19.10;;;17.00;21.60;;;;;;5016275;28;20207;-85
2022/04/21 13:17:30;;;;;;;20.17;19.30;;;17.00;22.40;;;;;;5015710;28;20169;-86
2022/04/21 13:19:56;;;;;;;19.87;19.07;;;17.00;21.60;;;;;;5016266;28;20446;-85
2022/04/21 13:22:22;;;;;;;18.90;18.20;;;17.00;21.60;;;;;;5015654;28;20211;-86
2022/04/21 13:24:47;;;;;;;19.20;18.50;;;16.90;21.60;;;;;;5015851;28;20465;-85
2022/04/21 13:27:16;;;;;;;19.00;18.30;;;16.90;22.20;;;;;;5033355;28;20514;-86
2022/04/21 13:29:44;;;;;;;19.53;18.83;;;16.80;22.30;;;;;;5015662;28;20180;-86
2022/04/21 13:34:54;;;;;;;19.60;18.80;;;16.90;21.80;;;;;;5033745;28;20410;-85